Time;durP1;ratioP1;P1;durP2;ratioP2;P2;SDS_P1;SDS_P2;PMS_P1;PMS_P2;Temp;Humidity;BMP_temperature;BMP_pressure;BME280_temperature;BME280_humidity;BME280_pressure;Samples;Min_cycle;Max_cycle;Signal;HPM_P1;HPM_P2
2023/09/04 00:00:05;;;;;;;11.23;8.77;;;;;;;23.98;94.06;101498.91;5013971;28;20049;-73
2023/09/04 00:02:39;;;;;;;9.68;8.15;;;;;;;23.97;93.87;101494.50;5014359;28;20042;-73
2023/09/04 00:05:07;;;;;;;9.70;8.70;;;;;;;23.91;94.73;101506.25;5013484;28;20057;-73
2023/09/04 00:07:35;;;;;;;12.65;8.82;;;;;;;23.87;95.09;101489.38;5013936;28;20068;-73
2023/09/04 00:10:03;;;;;;;11.45;8.88;;;;;;;23.80;95.23;101489.94;5012943;28;20042;-73
2023/09/04 00:12:32;;;;;;;12.90;10.05;;;;;;;23.80;95.22;101494.72;5013975;28;20057;-73
2023/09/04 00:15:00;;;;;;;11.02;9.07;;;;;;;23.89;94.35;101503.78;5014176;28;20049;-73
2023/09/04 00:17:30;;;;;;;11.48;9.52;;;;;;;23.85;94.76;101508.47;5013731;28;20057;-74
2023/09/04 00:19:58;;;;;;;12.15;8.82;;;;;;;23.67;96.24;101502.28;5012874;28;20058;-74
2023/09/04 00:22:27;;;;;;;10.15;8.25;;;;;;;23.66;96.28;101506.25;5013325;28;20515;-74
2023/09/04 00:24:55;;;;;;;10.38;8.40;;;;;;;23.46;97.03;101501.19;5013123;28;20050;-74
2023/09/04 00:27:23;;;;;;;9.73;8.73;;;;;;;23.29;98.02;101493.81;5012854;28;20061;-74
2023/09/04 00:29:51;;;;;;;10.23;8.30;;;;;;;23.22;99.06;101504.75;5013673;28;20042;-74
2023/09/04 00:32:18;;;;;;;11.48;8.30;;;;;;;23.24;98.87;101496.81;5011729;28;20050;-74
2023/09/04 00:34:46;;;;;;;10.43;8.63;;;;;;;23.32;98.04;101489.53;5013001;28;20054;-74
2023/09/04 00:37:14;;;;;;;14.40;8.57;;;;;;;23.42;97.42;101508.63;5012594;28;20050;-74
2023/09/04 00:39:42;;;;;;;10.02;8.15;;;;;;;23.31;98.40;101502.69;5012853;28;20522;-74
2023/09/04 00:42:10;;;;;;;10.07;8.85;;;;;;;23.25;99.05;101512.41;5010854;28;20145;-73
2023/09/04 00:44:38;;;;;;;14.88;8.98;;;;;;;23.16;99.87;101511.69;5011584;28;20386;-74
2023/09/04 00:47:06;;;;;;;11.32;8.75;;;;;;;23.18;99.46;101514.97;5013049;28;20057;-74
2023/09/04 00:49:34;;;;;;;8.73;7.82;;;;;;;23.12;99.88;101510.75;5011197;28;20046;-74
2023/09/04 00:52:05;;;;;;;10.15;8.20;;;;;;;23.15;99.36;101507.25;5028113;28;20484;-74
2023/09/04 00:54:33;;;;;;;11.45;8.15;;;;;;;23.13;100.00;101512.38;5011974;28;20053;-74
2023/09/04 00:57:03;;;;;;;11.88;7.72;;;;;;;23.18;99.39;101515.75;4995674;28;20050;-74
2023/09/04 00:59:32;;;;;;;9.05;7.45;;;;;;;23.12;100.00;101521.91;5011169;28;20046;-74
2023/09/04 01:02:01;;;;;;;11.25;8.18;;;;;;;23.08;100.00;101517.00;5012084;28;20480;-74
2023/09/04 01:04:29;;;;;;;10.27;7.63;;;;;;;23.03;100.00;101517.22;5012868;28;20041;-74
2023/09/04 01:06:57;;;;;;;10.25;8.10;;;;;;;23.03;100.00;101506.06;5012330;28;20046;-74
2023/09/04 01:09:26;;;;;;;10.63;8.10;;;;;;;23.00;100.00;101511.50;5012252;28;20056;-74
2023/09/04 01:12:07;;;;;;;8.73;7.82;;;;;;;22.99;100.00;101516.28;5011729;28;20046;-74
2023/09/04 01:14:36;;;;;;;8.80;7.90;;;;;;;22.99;100.00;101521.03;5012117;28;20049;-74
2023/09/04 01:17:06;;;;;;;8.23;7.47;;;;;;;22.90;100.00;101519.16;5012613;28;20515;-74
2023/09/04 01:19:37;;;;;;;10.82;8.25;;;;;;;22.79;100.00;101521.53;5012334;28;20057;-74
2023/09/04 01:22:06;;;;;;;9.68;7.80;;;;;;;22.80;100.00;101514.81;5012539;28;20515;-74
2023/09/04 01:24:35;;;;;;;11.15;7.65;;;;;;;22.79;100.00;101515.94;5012566;28;20042;-74
2023/09/04 01:27:19;;;;;;;8.77;7.72;;;;;;;22.79;100.00;101499.22;5012396;28;20052;-74
2023/09/04 01:30:05;;;;;;;11.93;7.57;;;;;;;22.79;100.00;101509.56;5011739;28;20052;-74
2023/09/04 01:32:59;;;;;;;10.30;7.75;;;;;;;22.75;100.00;101512.22;5012630;28;20046;-74
2023/09/04 01:35:30;;;;;;;10.93;8.40;;;;;;;22.79;100.00;101515.16;5010707;28;20511;-74
2023/09/04 01:37:58;;;;;;;12.70;9.38;;;;;;;22.89;100.00;101509.16;5011969;28;20054;-74
2023/09/04 01:40:26;;;;;;;9.98;8.23;;;;;;;22.92;100.00;101516.84;5012507;28;20046;-74
2023/09/04 01:42:54;;;;;;;10.65;7.63;;;;;;;22.87;100.00;101510.66;4994886;28;20056;-74
2023/09/04 01:45:22;;;;;;;9.75;8.57;;;;;;;22.94;100.00;101505.34;5027746;28;20385;-74
2023/09/04 01:47:51;;;;;;;10.48;8.00;;;;;;;22.94;100.00;101502.53;5010267;28;20057;-74
2023/09/04 01:50:19;;;;;;;9.25;7.80;;;;;;;22.87;100.00;101505.06;5011290;28;20046;-74
2023/09/04 01:52:47;;;;;;;8.38;7.32;;;;;;;22.81;100.00;101507.25;5010669;28;20065;-74
2023/09/04 01:55:15;;;;;;;8.95;7.60;;;;;;;22.81;100.00;101499.69;5011579;28;20060;-74
2023/09/04 01:57:43;;;;;;;8.18;7.32;;;;;;;22.77;100.00;101495.16;5011775;28;20064;-74
2023/09/04 02:00:12;;;;;;;8.98;7.82;;;;;;;22.72;100.00;101498.94;5027646;28;20046;-74
2023/09/04 02:02:42;;;;;;;8.55;7.65;;;;;;;22.54;100.00;101482.34;5011470;28;20045;-74
2023/09/04 02:05:10;;;;;;;9.20;7.82;;;;;;;22.66;100.00;101490.00;5010140;28;20055;-74
2023/09/04 02:07:38;;;;;;;10.80;7.85;;;;;;;22.71;100.00;101477.78;5011678;28;20083;-74
2023/09/04 02:10:07;;;;;;;9.25;7.97;;;;;;;22.73;100.00;101477.47;5012155;28;20038;-74
2023/09/04 02:12:34;;;;;;;9.02;7.80;;;;;;;22.75;100.00;101475.97;5012107;28;20046;-73
2023/09/04 02:15:03;;;;;;;8.70;7.80;;;;;;;22.76;100.00;101485.13;5030900;28;20057;-74
2023/09/04 02:17:31;;;;;;;9.80;8.18;;;;;;;22.70;100.00;101481.75;5015863;28;20057;-74
2023/09/04 02:20:00;;;;;;;10.73;8.07;;;;;;;22.71;100.00;101472.22;5015551;28;20064;-74
2023/09/04 02:22:41;;;;;;;8.85;7.65;;;;;;;22.86;100.00;101461.59;5014274;28;20038;-73
2023/09/04 02:25:09;;;;;;;9.07;7.28;;;;;;;22.64;100.00;101453.22;5013415;28;20069;-74
2023/09/04 02:27:36;;;;;;;11.18;8.02;;;;;;;22.42;100.00;101452.41;4996705;28;20417;-74
2023/09/04 02:30:07;;;;;;;9.77;8.13;;;;;;;22.61;100.00;101455.88;5013957;28;20489;-73
2023/09/04 02:32:35;;;;;;;10.20;7.82;;;;;;;22.63;100.00;101450.81;5010723;28;20058;-74
2023/09/04 02:35:03;;;;;;;9.43;8.05;;;;;;;22.55;100.00;101442.16;4999771;28;20042;-74
2023/09/04 02:37:31;;;;;;;9.73;7.93;;;;;;;22.51;100.00;101438.41;5011025;28;20053;-74
2023/09/04 02:39:59;;;;;;;11.52;7.85;;;;;;;22.53;100.00;101430.53;4996043;28;20049;-73
2023/09/04 02:42:30;;;;;;;9.57;8.23;;;;;;;22.58;100.00;101426.72;5010705;28;20055;-74
2023/09/04 02:44:58;;;;;;;9.73;8.55;;;;;;;22.57;100.00;101432.66;5006797;28;20060;-74
2023/09/04 02:47:26;;;;;;;11.25;8.35;;;;;;;22.44;100.00;101434.53;5015291;28;20042;-74
2023/09/04 02:49:55;;;;;;;9.25;7.93;;;;;;;22.45;100.00;101434.19;5015020;28;20400;-74
2023/09/04 02:52:23;;;;;;;9.40;7.75;;;;;;;22.39;100.00;101421.59;5015615;28;20046;-74
2023/09/04 02:54:51;;;;;;;10.32;7.75;;;;;;;22.43;100.00;101430.91;5015328;28;20480;-74
2023/09/04 02:57:18;;;;;;;9.90;7.70;;;;;;;22.38;100.00;101431.94;5014235;28;20053;-74
2023/09/04 02:59:46;;;;;;;10.52;8.48;;;;;;;22.47;100.00;101431.88;5013559;28;20514;-74
2023/09/04 03:02:14;;;;;;;10.00;7.93;;;;;;;22.33;100.00;101436.91;5015444;28;20057;-74
2023/09/04 03:04:42;;;;;;;11.55;8.50;;;;;;;22.22;100.00;101430.91;5015060;28;20045;-74
2023/09/04 03:07:10;;;;;;;11.25;8.02;;;;;;;22.10;100.00;101432.47;5013569;28;20046;-74
2023/09/04 03:09:38;;;;;;;8.27;7.35;;;;;;;22.12;100.00;101432.13;5014620;28;20484;-74
2023/09/04 03:12:06;;;;;;;10.88;8.52;;;;;;;22.12;100.00;101435.75;5014100;28;20049;-74
2023/09/04 03:14:34;;;;;;;10.98;8.77;;;;;;;22.07;100.00;101427.59;5015263;28;20057;-74
2023/09/04 03:17:04;;;;;;;9.45;8.48;;;;;;;22.05;100.00;101429.06;5015796;28;20042;-74
2023/09/04 03:19:33;;;;;;;11.82;7.97;;;;;;;22.05;100.00;101423.50;5030959;28;20488;-73
2023/09/04 03:22:01;;;;;;;11.73;7.80;;;;;;;22.01;100.00;101424.16;5013359;28;20066;-74
2023/09/04 03:24:29;;;;;;;10.30;8.57;;;;;;;22.00;100.00;101430.09;5012671;28;20060;-74
2023/09/04 03:26:58;;;;;;;10.15;8.20;;;;;;;21.98;100.00;101433.22;5014312;28;20053;-74
2023/09/04 03:29:26;;;;;;;9.30;8.20;;;;;;;21.99;100.00;101440.41;5014377;28;20060;-74
2023/09/04 03:31:55;;;;;;;11.73;8.43;;;;;;;21.97;100.00;101431.59;5013652;28;20381;-74
2023/09/04 03:34:24;;;;;;;9.60;7.85;;;;;;;21.92;100.00;101420.63;5013415;28;20050;-74
2023/09/04 03:36:52;;;;;;;11.27;8.13;;;;;;;21.93;100.00;101427.84;5014548;28;20065;-73
2023/09/04 03:39:21;;;;;;;8.93;7.70;;;;;;;21.93;100.00;101418.66;5014031;28;20049;-74
2023/09/04 03:41:49;;;;;;;9.13;7.47;;;;;;;21.85;100.00;101423.13;5014570;28;20049;-74
2023/09/04 03:44:17;;;;;;;11.30;8.40;;;;;;;21.94;100.00;101418.31;5014344;28;20045;-74
2023/09/04 03:46:45;;;;;;;10.77;7.70;;;;;;;21.97;100.00;101414.88;5014482;28;20053;-73
2023/09/04 03:49:14;;;;;;;9.32;7.38;;;;;;;21.90;100.00;101419.34;5013035;28;20061;-73
2023/09/04 03:51:42;;;;;;;12.27;8.43;;;;;;;21.95;100.00;101421.94;5028365;28;20053;-73
2023/09/04 03:54:10;;;;;;;9.13;8.13;;;;;;;21.91;100.00;101421.78;5012350;28;20050;-74
2023/09/04 03:56:38;;;;;;;14.15;8.30;;;;;;;21.92;100.00;101417.84;5013097;28;20050;-74
2023/09/04 03:59:06;;;;;;;10.70;8.70;;;;;;;21.89;100.00;101415.72;5014204;28;20049;-73
2023/09/04 04:01:34;;;;;;;8.77;7.88;;;;;;;21.91;100.00;101424.56;4996792;28;20045;-73
2023/09/04 04:04:02;;;;;;;9.30;8.10;;;;;;;22.01;100.00;101418.59;5013670;28;20050;-74
2023/09/04 04:06:30;;;;;;;9.15;7.78;;;;;;;21.93;100.00;101425.03;5013027;28;20042;-74
2023/09/04 04:08:58;;;;;;;10.02;7.80;;;;;;;21.93;100.00;101425.03;5013846;28;20061;-74
2023/09/04 04:11:27;;;;;;;9.50;7.95;;;;;;;22.00;100.00;101425.31;5012194;28;20049;-73
2023/09/04 04:13:54;;;;;;;8.32;7.38;;;;;;;22.03;100.00;101423.84;5013265;28;20049;-74
2023/09/04 04:16:22;;;;;;;11.10;7.78;;;;;;;22.09;100.00;101422.47;5014082;28;20046;-74
2023/09/04 04:18:50;;;;;;;8.00;6.28;;;;;;;22.01;99.68;101421.38;5013511;28;20061;-73
2023/09/04 04:21:18;;;;;;;9.30;6.22;;;;;;;22.19;97.82;101432.41;5013732;28;20054;-74
2023/09/04 04:23:46;;;;;;;6.32;5.72;;;;;;;22.33;96.98;101425.75;5011920;28;20061;-74
2023/09/04 04:26:14;;;;;;;6.45;5.80;;;;;;;22.38;96.08;101431.13;5012132;28;20053;-73
2023/09/04 04:28:41;;;;;;;5.28;4.78;;;;;;;22.37;94.85;101438.69;5013773;28;20505;-74
2023/09/04 04:31:10;;;;;;;6.35;4.97;;;;;;;22.38;92.79;101436.72;5013644;28;20046;-74
2023/09/04 04:33:38;;;;;;;5.30;4.43;;;;;;;22.38;89.02;101450.66;5012103;28;20061;-73
2023/09/04 04:36:07;;;;;;;4.78;4.32;;;;;;;22.42;89.51;101443.22;5011914;28;20117;-73
2023/09/04 04:38:35;;;;;;;5.82;4.90;;;;;;;22.52;89.45;101436.44;5012616;28;20096;-74
2023/09/04 04:41:05;;;;;;;5.03;4.43;;;;;;;22.53;90.63;101441.69;4996056;28;20046;-75
2023/09/04 04:43:33;;;;;;;5.32;3.85;;;;;;;22.42;90.16;101443.22;5012868;28;20396;-73
2023/09/04 04:46:01;;;;;;;8.85;5.40;;;;;;;22.51;94.19;101443.97;5012679;28;20045;-74
2023/09/04 04:48:29;;;;;;;7.47;6.38;;;;;;;22.47;96.30;101454.19;5011151;28;20493;-73
2023/09/04 04:50:57;;;;;;;7.28;6.13;;;;;;;22.12;99.50;101449.69;5013229;28;20054;-73
2023/09/04 04:53:25;;;;;;;8.80;6.40;;;;;;;22.06;100.00;101447.41;5011576;28;20053;-73
2023/09/04 04:55:53;;;;;;;7.40;6.70;;;;;;;22.09;100.00;101449.53;5012796;28;20042;-73
2023/09/04 04:58:21;;;;;;;8.32;6.20;;;;;;;22.22;98.75;101456.00;5011880;28;20065;-74
2023/09/04 05:00:50;;;;;;;11.77;7.03;;;;;;;22.33;98.11;101448.88;5012424;28;20049;-74
2023/09/04 05:03:19;;;;;;;8.63;7.03;;;;;;;22.21;98.99;101449.63;5027504;28;20045;-75
2023/09/04 05:05:47;;;;;;;10.90;6.78;;;;;;;22.11;95.50;101447.22;5011602;28;20057;-73
2023/09/04 05:08:15;;;;;;;7.43;5.93;;;;;;;21.99;92.79;101446.00;5011801;28;20046;-74
2023/09/04 05:10:45;;;;;;;10.50;5.90;;;;;;;22.37;93.60;101451.78;5012247;28;20050;-81
2023/09/04 05:13:13;;;;;;;7.35;5.28;;;;;;;22.57;88.26;101458.53;5007864;28;20042;-81
2023/09/04 05:15:42;;;;;;;8.15;5.25;;;;;;;22.69;88.36;101455.81;4976461;28;20054;-81
2023/09/04 05:18:10;;;;;;;6.80;5.50;;;;;;;22.89;88.56;101453.34;4975854;28;20053;-81
2023/09/04 05:20:40;;;;;;;10.80;6.32;;;;;;;22.79;91.28;101450.97;4986108;28;20049;-80
2023/09/04 05:23:08;;;;;;;8.90;6.30;;;;;;;23.04;91.10;101459.44;4975023;28;20153;-81
2023/09/04 05:25:36;;;;;;;7.28;6.38;;;;;;;23.16;90.60;101459.47;5011328;28;20396;-81
2023/09/04 05:28:04;;;;;;;7.32;6.07;;;;;;;23.09;91.38;101467.59;4978968;28;20047;-81
2023/09/04 05:30:33;;;;;;;8.77;6.63;;;;;;;23.15;91.72;101471.78;4995024;28;20061;-81
2023/09/04 05:33:02;;;;;;;8.65;6.22;;;;;;;23.06;92.59;101471.06;4984874;28;20046;-81
2023/09/04 05:35:30;;;;;;;7.13;6.22;;;;;;;23.19;91.99;101467.16;4991070;28;20066;-81
2023/09/04 05:37:58;;;;;;;7.28;5.85;;;;;;;23.25;91.58;101470.53;4978475;28;20050;-81
2023/09/04 05:40:26;;;;;;;9.60;6.03;;;;;;;23.35;91.47;101470.13;4994735;28;20046;-81
2023/09/04 05:42:54;;;;;;;9.43;6.10;;;;;;;23.51;90.07;101463.03;4978603;28;20046;-81
2023/09/04 05:45:23;;;;;;;9.43;5.63;;;;;;;23.65;88.59;101480.28;4993533;28;20050;-81
2023/09/04 05:47:51;;;;;;;7.22;5.18;;;;;;;23.72;89.76;101476.91;4978423;28;20086;-81
2023/09/04 05:50:19;;;;;;;6.38;5.63;;;;;;;23.76;89.38;101477.84;4979107;28;20081;-81
2023/09/04 05:52:47;;;;;;;9.02;6.07;;;;;;;23.74;88.44;101474.56;4978692;28;20065;-81
2023/09/04 05:55:15;;;;;;;6.50;5.03;;;;;;;23.89;88.89;101485.06;4994705;28;20053;-82
2023/09/04 05:57:44;;;;;;;5.90;5.28;;;;;;;24.12;87.26;101489.38;4978779;28;20054;-83
2023/09/04 06:00:12;;;;;;;6.95;4.63;;;;;;;24.18;85.03;101492.75;4985149;28;20049;-81
2023/09/04 06:02:41;;;;;;;7.13;5.13;;;;;;;24.46;83.52;101490.00;4998698;28;20042;-80
2023/09/04 06:05:11;;;;;;;7.20;4.25;;;;;;;24.52;80.23;101484.97;4978189;28;20054;-80
2023/09/04 06:07:46;;;;;;;6.55;4.15;;;;;;;24.65;79.79;101489.38;4977576;28;20408;-81
2023/09/04 06:10:15;;;;;;;5.22;4.20;;;;;;;24.66;83.07;101484.56;5011456;28;20053;-80
2023/09/04 06:12:44;;;;;;;6.00;4.93;;;;;;;24.82;82.72;101498.66;4978300;28;20068;-81
2023/09/04 06:15:15;;;;;;;8.32;4.78;;;;;;;25.03;82.22;101504.03;4978215;28;20440;-81
2023/09/04 06:17:43;;;;;;;5.53;4.90;;;;;;;25.07;81.28;101502.16;4977087;28;20392;-80
2023/09/04 06:20:12;;;;;;;5.55;4.95;;;;;;;25.17;81.58;101503.63;5009458;28;20730;-81
2023/09/04 06:22:44;;;;;;;5.25;4.70;;;;;;;25.10;82.10;101509.03;5011089;28;20439;-80
2023/09/04 06:25:12;;;;;;;5.30;4.80;;;;;;;25.17;81.35;101497.22;4993556;28;20046;-81
2023/09/04 06:27:40;;;;;;;7.05;4.80;;;;;;;25.15;81.75;101503.19;5010683;28;20424;-81
2023/09/04 06:30:09;;;;;;;5.60;4.55;;;;;;;25.24;81.56;101503.00;5009694;28;20054;-80
2023/09/04 06:32:38;;;;;;;5.60;5.00;;;;;;;25.26;81.27;101511.06;5011132;28;20042;-80
2023/09/04 06:35:07;;;;;;;5.80;4.85;;;;;;;25.35;81.14;101514.50;5009741;28;20069;-80
2023/09/04 06:37:35;;;;;;;6.93;5.40;;;;;;;25.34;81.40;101518.47;5022424;28;20381;-80
2023/09/04 06:40:04;;;;;;;5.78;5.20;;;;;;;25.51;81.14;101511.69;5009213;28;20116;-80
2023/09/04 06:42:33;;;;;;;6.55;4.63;;;;;;;25.50;81.09;101510.91;5011891;28;20049;-80
2023/09/04 06:45:02;;;;;;;7.00;4.80;;;;;;;25.53;80.85;101508.53;5011657;28;20049;-79
2023/09/04 06:47:30;;;;;;;4.85;4.40;;;;;;;25.55;78.94;101503.44;4992184;28;20050;-80
2023/09/04 06:50:01;;;;;;;5.13;4.40;;;;;;;25.67;79.60;101513.72;4998733;28;20057;-79
2023/09/04 06:52:29;;;;;;;5.43;4.70;;;;;;;25.83;78.82;101513.72;5012208;28;20041;-80
2023/09/04 06:54:58;;;;;;;8.88;4.63;;;;;;;25.88;76.10;101516.25;5004225;28;20049;-80
2023/09/04 06:57:26;;;;;;;6.53;4.88;;;;;;;26.09;76.82;101513.13;4992301;28;20058;-80
2023/09/04 07:00:06;;;;;;;4.47;4.07;;;;;;;26.20;75.95;101513.38;4993916;28;20054;-81
2023/09/04 07:02:36;;;;;;;5.80;4.00;;;;;;;26.37;76.35;101514.19;5009678;28;20046;-74
2023/09/04 07:05:08;;;;;;;5.85;4.10;;;;;;;26.50;74.36;101514.88;5015040;28;20374;-74
2023/09/04 07:07:37;;;;;;;4.38;3.90;;;;;;;26.53;73.70;101514.94;5015879;28;20258;-67
2023/09/04 07:10:06;;;;;;;4.35;4.00;;;;;;;26.64;75.02;101514.38;5014669;28;20058;-70
2023/09/04 07:12:35;;;;;;;4.65;3.78;;;;;;;26.78;73.24;101509.03;5008995;28;20334;-70
2023/09/04 07:15:04;;;;;;;4.65;4.10;;;;;;;26.67;74.26;101519.25;4999367;28;21294;-80
2023/09/04 07:17:33;;;;;;;5.03;4.32;;;;;;;26.76;75.14;101510.59;4996440;28;20530;-79
2023/09/04 07:20:01;;;;;;;6.57;4.03;;;;;;;26.84;73.92;101513.19;5013239;28;20061;-80
2023/09/04 07:22:30;;;;;;;7.25;4.45;;;;;;;26.89;73.89;101509.28;5013545;28;20397;-80
2023/09/04 07:24:58;;;;;;;5.07;4.57;;;;;;;26.82;75.71;101514.72;4994862;28;20053;-79
2023/09/04 07:27:27;;;;;;;5.63;4.07;;;;;;;26.84;76.07;101509.56;4994449;28;20054;-79
2023/09/04 07:29:56;;;;;;;4.93;3.92;;;;;;;27.04;75.37;101515.19;5001249;28;20046;-81
2023/09/04 07:32:25;;;;;;;6.13;4.68;;;;;;;27.10;75.88;101516.50;5011267;28;20041;-79
2023/09/04 07:34:56;;;;;;;5.28;4.80;;;;;;;27.09;75.74;101517.69;5013094;28;20107;-80
2023/09/04 07:37:28;;;;;;;6.60;4.40;;;;;;;27.26;74.66;101516.41;5014216;28;20038;-80
2023/09/04 07:39:56;;;;;;;9.05;5.30;;;;;;;27.23;76.78;101525.59;5015441;28;20061;-80
2023/09/04 07:42:25;;;;;;;7.00;5.18;;;;;;;27.24;77.23;101524.41;5013378;28;20057;-80
2023/09/04 07:44:53;;;;;;;5.07;4.68;;;;;;;27.39;77.22;101533.09;5014673;28;20048;-81
2023/09/04 07:47:24;;;;;;;7.90;4.32;;;;;;;27.49;77.18;101529.66;5014690;28;20050;-80
2023/09/04 07:49:54;;;;;;;4.45;4.03;;;;;;;27.49;77.81;101540.91;5013654;28;20069;-80
2023/09/04 07:52:23;;;;;;;6.43;4.60;;;;;;;27.54;75.11;101532.16;5008248;28;20053;-80
2023/09/04 07:54:52;;;;;;;5.75;4.30;;;;;;;27.12;79.07;101542.22;5004660;28;20054;-79
2023/09/04 07:57:21;;;;;;;7.13;4.40;;;;;;;27.14;79.93;101537.06;5006167;28;20050;-79
2023/09/04 07:59:50;;;;;;;4.93;4.43;;;;;;;27.19;78.96;101544.38;5010257;28;20054;-80
2023/09/04 08:02:18;;;;;;;6.50;3.97;;;;;;;27.22;78.35;101540.84;5013566;28;20069;-80
2023/09/04 08:04:47;;;;;;;6.07;4.35;;;;;;;26.97;79.97;101546.75;5014290;28;20057;-80
2023/09/04 08:07:16;;;;;;;5.00;3.70;;;;;;;27.13;79.53;101541.06;4994796;28;20065;-79
2023/09/04 08:09:44;;;;;;;6.47;3.65;;;;;;;27.48;76.95;101547.72;5001378;28;20038;-81
2023/09/04 08:12:13;;;;;;;4.90;3.70;;;;;;;27.63;75.24;101546.81;5000939;28;20049;-81
2023/09/04 08:14:43;;;;;;;4.78;2.75;;;;;;;27.72;72.74;101540.13;5020195;28;20075;-82
2023/09/04 08:17:12;;;;;;;4.03;2.85;;;;;;;27.77;70.35;101554.66;5003785;28;20054;-79
2023/09/04 08:19:41;;;;;;;3.00;2.80;;;;;;;27.66;72.01;101548.06;4995930;28;20169;-81
2023/09/04 08:22:09;;;;;;;3.17;2.88;;;;;;;27.55;73.82;101545.03;5004285;28;20057;-81
2023/09/04 08:24:37;;;;;;;6.32;2.97;;;;;;;27.59;75.77;101542.31;5012341;28;20038;-78
2023/09/04 08:27:07;;;;;;;4.22;3.53;;;;;;;27.42;75.54;101540.78;5001347;28;20057;-80
2023/09/04 08:29:36;;;;;;;3.95;3.17;;;;;;;27.42;74.46;101547.19;5010977;28;20056;-81
2023/09/04 08:32:09;;;;;;;5.70;2.95;;;;;;;27.46;73.71;101558.53;5013348;28;20057;-80
2023/09/04 08:34:38;;;;;;;4.00;3.10;;;;;;;27.46;74.36;101548.09;5011681;28;20046;-80
2023/09/04 08:37:07;;;;;;;4.72;2.58;;;;;;;27.49;71.91;101560.59;5012075;28;20519;-79
2023/09/04 08:39:35;;;;;;;5.47;2.60;;;;;;;27.56;71.89;101560.69;5012537;28;20405;-80
2023/09/04 08:42:07;;;;;;;3.33;2.75;;;;;;;27.69;71.92;101557.72;5012432;28;20396;-80
2023/09/04 08:44:39;;;;;;;3.40;2.75;;;;;;;27.70;72.81;101562.19;5011743;28;20041;-80
2023/09/04 08:47:09;;;;;;;4.20;3.28;;;;;;;27.71;72.45;101575.06;5026721;28;20041;-81
2023/09/04 08:49:42;;;;;;;3.78;2.70;;;;;;;27.82;71.21;101570.44;4992863;28;20069;-79
2023/09/04 08:52:12;;;;;;;3.00;2.53;;;;;;;28.06;70.24;101556.34;5008814;28;20129;-80
2023/09/04 08:54:42;;;;;;;3.13;2.50;;;;;;;28.23;68.47;101555.00;5005146;28;20038;-81
2023/09/04 08:57:11;;;;;;;2.55;2.35;;;;;;;28.15;68.52;101546.44;4992210;28;20050;-80
2023/09/04 08:59:40;;;;;;;2.50;2.30;;;;;;;28.39;67.89;101540.78;4993186;28;20042;-81
2023/09/04 09:02:14;;;;;;;4.00;2.38;;;;;;;28.29;68.29;101553.47;5003778;28;20061;-79
2023/09/04 09:04:43;;;;;;;3.45;2.20;;;;;;;28.37;67.86;101555.22;5012930;28;20044;-80
2023/09/04 09:07:13;;;;;;;2.72;2.53;;;;;;;28.30;68.78;101557.94;5011772;28;20213;-80
2023/09/04 09:09:47;;;;;;;3.75;2.53;;;;;;;28.44;68.23;101552.50;5013205;28;20057;-80
2023/09/04 09:12:17;;;;;;;3.85;2.92;;;;;;;28.20;68.38;101562.16;5029024;28;20061;-81
2023/09/04 09:14:47;;;;;;;3.63;2.58;;;;;;;28.13;68.55;101551.63;4998302;28;20042;-80
2023/09/04 09:17:15;;;;;;;2.70;2.50;;;;;;;28.19;68.95;101540.06;4992871;28;20050;-80
2023/09/04 09:19:47;;;;;;;5.20;3.22;;;;;;;28.32;68.66;101546.28;4993283;28;20121;-81
2023/09/04 09:22:17;;;;;;;3.50;2.70;;;;;;;28.36;67.35;101530.28;4994050;28;20062;-80
2023/09/04 09:24:56;;;;;;;2.97;2.78;;;;;;;28.49;66.72;101547.75;4992466;28;20054;-80
2023/09/04 09:27:28;;;;;;;5.78;2.40;;;;;;;28.40;66.44;101537.56;5011499;28;20128;-79
2023/09/04 09:29:59;;;;;;;3.65;2.38;;;;;;;28.34;64.87;101555.97;5020261;28;20045;-87
2023/09/04 09:32:30;;;;;;;2.70;2.50;;;;;;;28.20;66.32;101536.84;5013103;28;20075;-80
2023/09/04 09:35:01;;;;;;;5.97;2.75;;;;;;;28.48;64.73;101549.75;5012587;28;20054;-85
2023/09/04 09:37:32;;;;;;;2.70;2.28;;;;;;;28.23;64.33;101544.56;5013500;28;20053;-86
2023/09/04 09:40:01;;;;;;;3.72;2.70;;;;;;;28.17;63.83;101534.81;5013424;28;20467;-80
2023/09/04 09:42:31;;;;;;;3.47;2.28;;;;;;;28.66;63.59;101537.91;4995532;28;20508;-84
2023/09/04 09:44:59;;;;;;;2.53;1.98;;;;;;;28.93;62.00;101546.31;5007260;28;20385;-81
2023/09/04 09:47:28;;;;;;;5.20;2.22;;;;;;;29.10;60.95;101542.09;5007878;28;20063;-80
2023/09/04 09:50:02;;;;;;;2.40;2.05;;;;;;;29.13;61.52;101537.69;5009793;28;20392;-83
2023/09/04 09:52:31;;;;;;;2.60;2.35;;;;;;;29.10;59.91;101539.25;5009551;28;20042;-84
2023/09/04 09:54:59;;;;;;;3.88;2.00;;;;;;;29.02;59.97;101537.56;5009797;28;20266;-88
2023/09/04 09:57:33;;;;;;;2.30;2.10;;;;;;;29.31;58.47;101537.84;5010469;28;20057;-84
2023/09/04 10:00:02;;;;;;;3.60;2.03;;;;;;;29.28;58.92;101535.81;5009201;28;20053;-82
2023/09/04 10:02:31;;;;;;;6.55;2.40;;;;;;;28.81;58.97;101536.09;4995941;28;20057;-81
2023/09/04 10:05:01;;;;;;;6.35;2.25;;;;;;;28.53;61.55;101535.34;4992615;28;20046;-80
2023/09/04 10:07:32;;;;;;;3.13;2.35;;;;;;;28.66;61.10;101526.66;5010529;28;20053;-83
2023/09/04 10:10:05;;;;;;;2.75;2.25;;;;;;;28.64;61.42;101532.66;5010935;28;20138;-82
2023/09/04 10:12:56;;;;;;;2.38;2.13;;;;;;;28.17;62.05;101530.00;5010130;28;20062;-81
2023/09/04 10:15:26;;;;;;;3.70;2.58;;;;;;;28.13;62.50;101540.38;5012056;28;20077;-83
2023/09/04 10:18:10;;;;;;;6.50;2.08;;;;;;;28.09;63.38;101539.50;5010199;28;20053;-83
2023/09/04 10:20:44;;;;;;;2.30;2.10;;;;;;;28.23;62.49;101532.50;5010723;28;20046;-82
2023/09/04 10:23:14;;;;;;;;;;;;;;;28.35;62.15;101545.53;5011798;28;20050;-82
2023/09/04 10:26:06;;;;;;;3.17;2.17;;;;;;;28.30;62.11;101541.06;5011734;28;19922;-81
2023/09/04 10:28:39;;;;;;;2.03;1.92;;;;;;;28.34;61.52;101543.94;5012163;28;20049;-84
2023/09/04 10:31:12;;;;;;;3.40;2.30;;;;;;;28.29;61.49;101536.59;5009998;28;20057;-81
2023/09/04 10:33:41;;;;;;;2.25;2.10;;;;;;;28.31;61.71;101539.88;5013310;28;20050;-82
2023/09/04 10:36:10;;;;;;;4.40;2.28;;;;;;;28.44;60.52;101526.34;5016827;28;20376;-82
2023/09/04 10:38:38;;;;;;;3.67;2.17;;;;;;;28.60;61.70;101516.91;5017165;28;20061;-82
2023/09/04 10:41:14;;;;;;;3.20;2.80;;;;;;;28.86;62.35;101513.25;5016817;28;20046;-84
2023/09/04 10:43:43;;;;;;;4.22;2.75;;;;;;;29.10;59.97;101519.53;5016381;28;20068;-81
2023/09/04 10:46:14;;;;;;;3.95;2.53;;;;;;;29.19;57.99;101511.59;5016340;28;20042;-82
2023/09/04 10:48:53;;;;;;;5.43;2.42;;;;;;;29.37;58.34;101513.75;5016723;28;20050;-82
2023/09/04 10:51:24;;;;;;;2.78;2.25;;;;;;;29.68;57.88;101514.47;5015141;28;20041;-83
2023/09/04 10:53:53;;;;;;;3.33;2.13;;;;;;;29.94;57.01;101500.53;5014814;28;20041;-85
2023/09/04 10:56:21;;;;;;;2.30;2.10;;;;;;;29.91;56.09;101507.81;5017491;28;20393;-82
2023/09/04 10:59:05;;;;;;;3.45;2.60;;;;;;;29.98;56.14;101509.84;5018069;28;20389;-83
2023/09/04 11:01:39;;;;;;;2.80;2.17;;;;;;;29.84;56.41;101507.72;5018844;28;20061;-82
2023/09/04 11:04:25;;;;;;;2.90;2.45;;;;;;;29.38;56.57;101504.13;5011758;28;20753;-82
2023/09/04 11:07:21;;;;;;;3.35;2.33;;;;;;;29.52;57.72;101499.84;5021490;28;20377;-87
2023/09/04 11:10:27;;;;;;;3.13;2.58;;;;;;;29.48;58.43;101509.06;5013352;28;20042;-80
2023/09/04 11:12:55;;;;;;;4.47;2.72;;;;;;;29.17;57.00;101488.63;5015747;28;20377;-82
2023/09/04 11:50:16;;;;;;;3.28;2.25;;;;;;;29.32;56.47;101474.66;4991458;28;20506;-83
2023/09/04 11:52:45;;;;;;;2.53;2.33;;;;;;;29.35;56.10;101471.06;5009421;28;20050;-82
2023/09/04 11:55:17;;;;;;;4.68;2.70;;;;;;;29.26;56.53;101464.97;5013849;28;20042;-82
2023/09/04 11:57:45;;;;;;;3.40;2.50;;;;;;;29.33;56.52;101459.38;5006728;28;20053;-81
2023/09/04 12:00:15;;;;;;;2.40;2.20;;;;;;;29.41;55.81;101452.59;5013198;28;20507;-84
2023/09/04 12:02:44;;;;;;;3.20;2.00;;;;;;;29.27;54.58;101458.13;5011708;28;20057;-82
2023/09/04 12:05:19;;;;;;;3.00;2.35;;;;;;;29.59;55.01;101458.41;5012719;28;20050;-82
2023/09/04 12:07:48;;;;;;;2.75;2.08;;;;;;;29.50;54.86;101452.28;5006624;28;20396;-80